• Join FlightAware (Why Join?)
  • Login
  • US Flag 
01:22AM EDT


 

Airport Tracker/Info


-or-


 

Live Flight TrackerFlight Track Log ✈ N488CP ✈ 03-May-2013 ✈ KFAR - KBFI

Flight Track Log - Related Links

Times and Time Zones

All times are in EDT time to prevent confusion due to time zone crossing. See the N488CP flight status page for this flight to view local times or setup timezone preferences in your user account.

Time Position Orientation Groundspeed Altitude Reporting Facility
EDT Latitude Longitude Course Direction KTS MPH feet Rate Location/Type
02:08PM 46.9361 -96.9067 252° West 219 252 6,300  Level Minneapolis Center
02:09PM 46.8903 -96.9697 223° Southwest 236 272 9,900 3,720 Climbing Minneapolis Center
02:10PM 46.8394 -97.0406 224° Southwest 241 277 14,000 3,360 Climbing Minneapolis Center
02:11PM 46.8383 -97.1406 269° West 248 285 16,900 1,980 Climbing Minneapolis Center
02:13PM 47.0219 -97.5701 281° West  Level Estimated
02:13PM 46.8558 -97.2678 281° West 305 351 18,100  Level Minneapolis Center
02:14PM 46.8697 -97.3817 280° West 329 379 19,400 1,800 Climbing Minneapolis Center
02:15PM 46.8886 -97.5475 280° West 342 394 21,900 1,980 Climbing Minneapolis Center
02:16PM 46.9039 -97.6861 279° West 345 397 23,500 1,380 Climbing Minneapolis Center
02:17PM 46.9203 -97.8275 280° West 350 403 24,800 1,380 Climbing Minneapolis Center
02:18PM 46.9353 -97.9739 279° West 360 414 26,400 1,560 Climbing Minneapolis Center
02:19PM 46.9519 -98.1247 279° West 371 427 28,100 1,740 Climbing Minneapolis Center
02:20PM 46.9686 -98.2758 279° West 375 432 30,000 1,680 Climbing Minneapolis Center
02:21PM 46.9839 -98.4250 279° West 374 430 31,600 1,500 Climbing Minneapolis Center
02:22PM 46.9981 -98.5742 278° West 370 426 33,100 1,560 Climbing Minneapolis Center
02:23PM 47.0167 -98.7514 279° West 369 425 34,900 1,560 Climbing Minneapolis Center
02:24PM 47.0314 -98.8983 278° West 366 421 36,300 1,080 Climbing Minneapolis Center
02:25PM 47.0456 -99.0436 278° West 362 417 37,200 900 Climbing Minneapolis Center
02:26PM 47.0600 -99.1903 278° West 363 418 38,200 780 Climbing Minneapolis Center
02:27PM 47.0747 -99.3381 278° West 365 420 38,900 720 Climbing Minneapolis Center
02:28PM 47.0875 -99.4867 277° West 367 422 39,800 480 Climbing Minneapolis Center
02:29PM 47.1050 -99.6661 278° West 369 425 40,000 60 Climbing Minneapolis Center
02:30PM 47.1192 -99.8225 278° West 380 437 40,000  Level Minneapolis Center
02:31PM 47.1333 -99.9825 277° West 391 450 40,000  Level Minneapolis Center
02:32PM 47.1478 -100.1442 278° West 397 457 40,000  Level Minneapolis Center
02:33PM 47.1625 -100.3092 278° West 403 464 40,000  Level Minneapolis Center
02:34PM 47.1769 -100.4747 277° West 408 470 40,000  Level Minneapolis Center
02:35PM 47.1897 -100.6394 277° West 408 470 40,000  Level Minneapolis Center
02:36PM 47.2075 -100.8375 278° West 408 470 40,000  Level Minneapolis Center
02:37PM 47.2192 -100.9839 277° West 407 468 40,000  Level Minneapolis Center
02:38PM 47.2406 -101.1797 279° West 406 467 40,000  Level Minneapolis Center
02:39PM 47.2525 -101.3433 276° West 404 465 40,000  Level Minneapolis Center
02:40PM 47.2567 -101.5106 272° West 408 470 40,000  Level Minneapolis Center
02:41PM 47.2739 -101.6361 281° West 400 460 40,000  Level Minneapolis Center
02:42PM 47.2828 -101.8358 274° West 406 467 40,000  Level Minneapolis Center
02:43PM 47.2942 -102.0003 276° West 407 468 40,000  Level Minneapolis Center
02:44PM 47.3058 -102.1625 276° West 403 464 40,000  Level Minneapolis Center
02:46PM 47.3194 -102.3578 276° West 401 461 40,000  Level Minneapolis Center
02:47PM 47.3319 -102.5206 277° West 399 459 40,000  Level Minneapolis Center
02:48PM 47.3419 -102.6836 275° West 400 460 40,000  Level Minneapolis Center
02:49PM 47.3528 -102.8458 276° West 400 460 40,000  Level Minneapolis Center
02:50PM 47.3639 -103.0072 276° West 398 458 40,000  Level Minneapolis Center
02:51PM 47.3733 -103.1708 275° West 400 460 40,000  Level Salt Lake Center
02:52PM 47.3831 -103.3325 275° West 398 458 40,000  Level Salt Lake Center
02:53PM 47.3928 -103.4953 275° West 398 458 40,000  Level Salt Lake Center
02:54PM 47.4014 -103.6581 275° West 397 457 40,000  Level Salt Lake Center
02:55PM 47.4103 -103.8208 275° West 395 455 40,000  Level Salt Lake Center
02:56PM 47.4194 -103.9833 275° West 394 453 40,000  Level Salt Lake Center
02:57PM 47.4278 -104.1450 274° West 394 453 40,000  Level Salt Lake Center
02:58PM 47.4375 -104.3389 274° West 394 453 40,000  Level Salt Lake Center
02:59PM 47.4464 -104.5003 275° West 393 452 40,000  Level Salt Lake Center
03:00PM 47.4542 -104.6619 274° West 394 453 40,000  Level Salt Lake Center
03:01PM 47.4603 -104.8219 273° West 393 452 40,000  Level Salt Lake Center
03:02PM 47.4675 -104.9825 274° West 392 451 40,000  Level Salt Lake Center
03:03PM 47.4778 -105.1408 276° West 389 448 40,000  Level Salt Lake Center
03:04PM 47.4847 -105.2986 274° West 388 447 40,000  Level Salt Lake Center
03:05PM 47.4914 -105.4597 274° West 390 449 40,000  Level Salt Lake Center
03:06PM 47.4997 -105.6508 274° West 390 449 40,000  Level Salt Lake Center
03:07PM 47.5047 -105.8103 273° West 389 448 40,000  Level Salt Lake Center
03:08PM 47.5117 -105.9722 274° West 393 452 40,000  Level Salt Lake Center
03:09PM 47.5172 -106.1328 273° West 394 453 40,000  Level Salt Lake Center
03:10PM 47.5217 -106.2944 272° West 394 453 40,000  Level Salt Lake Center
03:11PM 47.5286 -106.4583 274° West 397 457 40,000  Level Salt Lake Center
03:12PM 47.5336 -106.6208 273° West 397 457 40,000  Level Salt Lake Center
03:13PM 47.5389 -106.8161 272° West 397 457 40,000  Level Salt Lake Center
03:14PM 47.5436 -106.9789 273° West 396 456 40,000  Level Salt Lake Center
03:15PM 47.5478 -107.1406 272° West 395 455 40,000  Level Salt Lake Center
03:16PM 47.5525 -107.3025 273° West 395 455 40,000  Level Salt Lake Center
03:17PM 47.5564 -107.4586 272° West 396 456 40,000  Level Salt Lake Center
03:18PM 47.5603 -107.6531 272° West 395 455 40,000  Level Salt Lake Center
03:19PM 47.5650 -107.8139 273° West 393 452 40,000  Level Salt Lake Center
03:20PM 47.5675 -107.9758 271° West 395 455 40,000  Level Salt Lake Center
03:21PM 47.5697 -108.1389 271° West 396 456 40,000  Level Salt Lake Center
03:22PM 47.5719 -108.3003 271° West 395 455 40,000  Level Salt Lake Center
03:23PM 47.5758 -108.4628 272° West 396 456 40,000  Level Salt Lake Center
03:25PM 47.5775 -108.6250 271° West 395 455 40,000  Level Salt Lake Center
03:26PM 47.5789 -108.8203 271° West 396 456 40,000  Level Salt Lake Center
03:27PM 47.5822 -108.9825 272° West 394 453 40,000  Level Salt Lake Center
03:28PM 47.5831 -109.1456 270° West 396 456 40,000  Level Salt Lake Center
03:29PM 47.5844 -109.3072 271° West 396 456 40,000  Level Salt Lake Center
03:30PM 47.5853 -109.4681 270° West 394 453 40,000  Level Salt Lake Center
03:31PM 47.5864 -109.6297 271° West 393 452 40,000  Level Salt Lake Center
03:32PM 47.5875 -109.7889 271° West 390 449 40,000  Level Salt Lake Center
03:33PM 47.5856 -109.9806 269° West 389 448 40,000  Level Salt Lake Center
03:34PM 47.5861 -110.1400 270° West 387 445 40,000  Level Salt Lake Center
03:35PM 47.5861 -110.2992 270° West 387 445 40,000  Level Salt Lake Center
03:36PM 47.5867 -110.4586 270° West 388 447 40,000  Level Salt Lake Center
03:37PM 47.5869 -110.6175 270° West 387 445 40,000  Level Salt Lake Center
03:38PM 47.5847 -110.7772 269° West 389 448 40,000  Level Salt Lake Center
03:39PM 47.5847 -110.9353 270° West 386 444 40,000  Level Salt Lake Center
03:40PM 47.5842 -111.1267 270° West 387 445 40,000  Level Salt Lake Center
03:41PM 47.5803 -111.2658 268° West 389 448 40,000  Level Salt Lake Center
03:42PM 47.5800 -111.4258 270° West 388 447 40,000  Level Salt Lake Center
03:43PM 47.5778 -111.5869 269° West 389 448 40,000  Level Salt Lake Center
03:44PM 47.5753 -111.7789 269° West 389 448 40,000  Level Salt Lake Center
03:45PM 47.5736 -111.9381 269° West 389 448 40,000  Level Salt Lake Center
03:46PM 47.5714 -112.0981 269° West 389 448 40,000  Level Salt Lake Center
03:47PM 47.5675 -112.2583 268° West 390 449 40,000  Level Salt Lake Center
03:48PM 47.5639 -112.4189 268° West 392 451 40,000  Level Salt Lake Center
03:49PM 47.5614 -112.5797 269° West 392 451 40,000  Level Salt Lake Center
03:50PM 47.5567 -112.7408 268° West 393 452 40,000  Level Salt Lake Center
03:51PM 47.5542 -112.9028 269° West 396 456 40,000  Level Salt Lake Center
03:52PM 47.5508 -113.0961 269° West 397 457 40,000  Level Salt Lake Center
03:53PM 47.5464 -113.2578 268° West 394 453 40,000  Level Salt Lake Center
03:54PM 47.5406 -113.4208 267° West 397 457 40,000  Level Salt Lake Center
03:55PM 47.5364 -113.5817 268° West 392 451 40,000  Level Salt Lake Center
03:56PM 47.5308 -113.7453 267° West 396 456 40,000  Level Salt Lake Center
03:57PM 47.5256 -113.9103 267° West 393 452 40,000  Level Salt Lake Center
03:58PM 47.5203 -114.0689 267° West 395 455 40,000  Level Salt Lake Center
03:59PM 47.5153 -114.2306 267° West 393 452 40,000  Level Salt Lake Center
04:00PM 47.5100 -114.3939 267° West 396 456 40,000  Level Salt Lake Center
04:01PM 47.5231 -114.5858 276° West 390 449 40,000  Level Salt Lake Center
04:03PM 47.5361 -114.7492 277° West 394 453 40,000  Level Seattle Center
04:04PM 47.5492 -114.9094 277° West 393 452 40,000  Level Seattle Center
04:05PM 47.5611 -115.0706 276° West 393 452 40,000  Level Seattle Center
04:06PM 47.5731 -115.2314 276° West 393 452 40,000  Level Seattle Center
04:07PM 47.5869 -115.4253 276° West 394 453 40,000  Level Seattle Center
04:08PM 47.5983 -115.5869 276° West 395 455 40,000  Level Seattle Center
04:09PM 47.6092 -115.7361 276° West 398 458 40,000  Level Seattle Center
04:10PM 47.6200 -115.8992 276° West 399 459 40,000  Level Seattle Center
04:11PM 47.6308 -116.0619 276° West 399 459 40,000  Level Seattle Center
04:12PM 47.6403 -116.2239 275° West 397 457 40,000  Level Seattle Center
04:13PM 47.6525 -116.4164 275° West 394 453 40,000  Level Seattle Center
04:14PM 47.6636 -116.5767 276° West 394 453 40,000  Level Seattle Center
04:15PM 47.6722 -116.7372 275° West 394 453 40,000  Level Seattle Center
04:16PM 47.6833 -116.8978 276° West 395 455 40,000  Level Seattle Center
04:17PM 47.6936 -117.0556 276° West 394 453 40,000  Level Seattle Center
04:18PM 47.7017 -117.2147 274° West 396 456 40,000  Level Seattle Center
04:19PM 47.7094 -117.3747 274° West 396 456 40,000  Level Seattle Center
04:20PM 47.7203 -117.5708 275° West 398 458 40,000  Level Seattle Center
04:21PM 47.7278 -117.7339 274° West 399 459 40,000  Level Seattle Center
04:22PM 47.7364 -117.8981 275° West 402 463 40,000  Level Seattle Center
04:23PM 47.7453 -118.0617 275° West 399 459 40,000  Level Seattle Center
04:24PM 47.7522 -118.2247 274° West 397 457 40,000  Level Seattle Center
04:25PM 47.7594 -118.3850 274° West 393 452 40,000  Level Seattle Center
04:26PM 47.7669 -118.5475 274° West 394 453 40,000  Level Seattle Center
04:27PM 47.7739 -118.7089 274° West 393 452 40,000  Level Seattle Center
04:28PM 47.7803 -118.8725 273° West 397 457 40,000  Level Seattle Center
04:29PM 47.7864 -119.0347 273° West 395 455 40,000  Level Seattle Center
04:30PM 47.7925 -119.1989 273° West 397 457 40,000  Level Seattle Center
04:31PM 47.8017 -119.3967 274° West 400 460 40,000 -120 Level Seattle Center
04:32PM 47.8067 -119.5631 273° West 403 464 39,800 -840 Descending Seattle Center
04:33PM 47.8133 -119.7331 273° West 412 474 38,400 -1,680 Descending Seattle Center
04:34PM 47.8178 -119.8964 272° West 398 458 36,400 -1,800 Descending Seattle Center
04:35PM 47.8233 -120.0633 273° West 404 465 34,800 -1,860 Descending Seattle Center
04:36PM 47.8289 -120.2319 273° West 410 472 32,700 -2,220 Descending Seattle Center
04:37PM 47.8331 -120.4047 272° West 418 481 30,300 -2,460 Descending Seattle Center
04:38PM 47.8397 -120.5772 273° West 419 482 27,800 -2,460 Descending Seattle Center
04:39PM 47.8428 -120.7578 272° West 436 502 25,300 -2,460 Descending Seattle Center
04:40PM 47.8483 -120.9406 273° West 430 495 22,900 -2,520 Descending Seattle Center
04:41PM 47.8528 -121.1025 272° West 398 458 20,200 -2,760 Descending Seattle Center
04:42PM 47.8600 -121.2922 273° West 389 448 17,400 -2,760 Descending Seattle Center
04:43PM 47.8669 -121.3647 278° West 377 434 16,100 -2,700 Descending Seattle Center
04:43PM 47.8694 -121.4369 273° West 356 410 14,700 -2,880 Descending Seattle Center
04:44PM 47.8769 -121.5581 275° West 295 339 12,000 -2,400 Descending Seattle Center
04:45PM 47.8453 -121.6686 247° West 296 341 10,100 -1,140 Descending Seattle Center
04:46PM 47.7956 -121.7697 234° Southwest 305 351 9,800 -1,200 Descending Seattle Center
04:47PM 47.7456 -121.8608 231° Southwest 296 341 7,800 -1,800 Descending Seattle Center
04:48PM 47.6697 -121.9036 201° Southwest 286 329 6,200 -1,620 Descending Seattle Center
04:49PM 47.6067 -121.9622 212° Southwest 260 299 4,600 -1,020 Descending Seattle Center
04:50PM 47.5508 -122.0131 212° Southwest 211 243 4,200 -240 Descending Seattle Center
04:51PM 47.4981 -122.0592 211° Southwest 215 247 4,200 -360 Level Seattle Center
04:53PM 47.4436 -122.1206 217° Southwest 219 252 3,500 -960 Descending Seattle Center
04:53PM 47.4261 -122.1875 249° West 208 239 2,300 -960 Descending Seattle Center
04:54PM 47.4525 -122.2386 307° West 153 176 1,700 -780 Descending Seattle Center
04:55PM 47.4914 -122.2694 332° Northwest 138 159 800 -720 Descending Seattle Center
04:57PM 47.5253 -122.2989 330° Northwest 135 155 200 -540 Descending Seattle Center